sensor_id;sensor_type;location;lat;lon;timestamp;temperature;humidity
10911;DHT22;5508;49.150;11.030;2024-03-17T00:00:51;3.60;99.90
10911;DHT22;5508;49.150;11.030;2024-03-17T00:03:54;3.60;99.90
10911;DHT22;5508;49.150;11.030;2024-03-17T00:06:55;3.60;99.90
10911;DHT22;5508;49.150;11.030;2024-03-17T00:09:55;3.60;99.90
10911;DHT22;5508;49.150;11.030;2024-03-17T00:12:56;3.60;99.90
10911;DHT22;5508;49.150;11.030;2024-03-17T00:15:57;3.50;99.90
10911;DHT22;5508;49.150;11.030;2024-03-17T00:18:58;3.50;99.90
10911;DHT22;5508;49.150;11.030;2024-03-17T00:21:58;3.40;99.90
10911;DHT22;5508;49.150;11.030;2024-03-17T00:25:00;3.30;99.90
10911;DHT22;5508;49.150;11.030;2024-03-17T00:28:01;3.40;99.90
10911;DHT22;5508;49.150;11.030;2024-03-17T00:31:03;3.40;99.90
10911;DHT22;5508;49.150;11.030;2024-03-17T00:34:04;3.40;99.90
10911;DHT22;5508;49.150;11.030;2024-03-17T00:37:05;3.60;99.90
10911;DHT22;5508;49.150;11.030;2024-03-17T00:40:06;3.60;99.90
10911;DHT22;5508;49.150;11.030;2024-03-17T00:43:06;3.70;99.90
10911;DHT22;5508;49.150;11.030;2024-03-17T00:46:07;3.70;99.90
10911;DHT22;5508;49.150;11.030;2024-03-17T00:49:09;3.70;99.90
10911;DHT22;5508;49.150;11.030;2024-03-17T00:52:10;3.70;99.90
10911;DHT22;5508;49.150;11.030;2024-03-17T00:55:11;3.70;99.90
10911;DHT22;5508;49.150;11.030;2024-03-17T00:58:11;3.80;99.90
10911;DHT22;5508;49.150;11.030;2024-03-17T01:01:12;3.80;99.90
10911;DHT22;5508;49.150;11.030;2024-03-17T01:04:13;3.70;99.90
10911;DHT22;5508;49.150;11.030;2024-03-17T01:07:13;3.50;99.90
10911;DHT22;5508;49.150;11.030;2024-03-17T01:10:14;3.30;99.90
10911;DHT22;5508;49.150;11.030;2024-03-17T01:13:15;3.10;99.90
10911;DHT22;5508;49.150;11.030;2024-03-17T01:16:16;3.00;99.90
10911;DHT22;5508;49.150;11.030;2024-03-17T01:19:16;2.90;99.90
10911;DHT22;5508;49.150;11.030;2024-03-17T01:22:17;2.90;99.90
10911;DHT22;5508;49.150;11.030;2024-03-17T01:25:18;2.90;99.90
10911;DHT22;5508;49.150;11.030;2024-03-17T01:28:18;2.80;99.90
10911;DHT22;5508;49.150;11.030;2024-03-17T01:31:19;2.80;99.90
10911;DHT22;5508;49.150;11.030;2024-03-17T01:34:20;2.90;99.90
10911;DHT22;5508;49.150;11.030;2024-03-17T01:37:20;3.00;99.90
10911;DHT22;5508;49.150;11.030;2024-03-17T01:40:21;3.00;99.90
10911;DHT22;5508;49.150;11.030;2024-03-17T01:43:22;3.10;99.90
10911;DHT22;5508;49.150;11.030;2024-03-17T01:46:23;3.20;99.90
10911;DHT22;5508;49.150;11.030;2024-03-17T01:49:25;3.10;99.90
10911;DHT22;5508;49.150;11.030;2024-03-17T01:52:27;3.00;99.90
10911;DHT22;5508;49.150;11.030;2024-03-17T01:55:28;3.00;99.90
10911;DHT22;5508;49.150;11.030;2024-03-17T01:58:30;2.90;99.90
10911;DHT22;5508;49.150;11.030;2024-03-17T02:01:31;2.90;99.90
10911;DHT22;5508;49.150;11.030;2024-03-17T02:04:32;2.70;99.90
10911;DHT22;5508;49.150;11.030;2024-03-17T02:07:32;2.70;99.90
10911;DHT22;5508;49.150;11.030;2024-03-17T02:10:34;2.60;99.90
10911;DHT22;5508;49.150;11.030;2024-03-17T02:13:34;2.50;99.90
10911;DHT22;5508;49.150;11.030;2024-03-17T02:16:35;2.40;99.90
10911;DHT22;5508;49.150;11.030;2024-03-17T02:19:35;2.40;99.90
10911;DHT22;5508;49.150;11.030;2024-03-17T02:22:36;2.30;99.90
10911;DHT22;5508;49.150;11.030;2024-03-17T02:25:37;2.20;99.90
10911;DHT22;5508;49.150;11.030;2024-03-17T02:28:39;2.10;99.90
10911;DHT22;5508;49.150;11.030;2024-03-17T02:31:39;2.10;99.90
10911;DHT22;5508;49.150;11.030;2024-03-17T02:34:40;2.00;99.90
10911;DHT22;5508;49.150;11.030;2024-03-17T02:37:41;2.00;99.90
10911;DHT22;5508;49.150;11.030;2024-03-17T02:40:42;2.00;99.90
10911;DHT22;5508;49.150;11.030;2024-03-17T02:43:42;1.90;99.90
10911;DHT22;5508;49.150;11.030;2024-03-17T02:46:43;1.80;99.90
10911;DHT22;5508;49.150;11.030;2024-03-17T02:49:44;1.90;99.90
10911;DHT22;5508;49.150;11.030;2024-03-17T02:52:44;1.90;99.90
10911;DHT22;5508;49.150;11.030;2024-03-17T02:55:45;1.90;99.90
10911;DHT22;5508;49.150;11.030;2024-03-17T02:58:47;1.90;99.90
10911;DHT22;5508;49.150;11.030;2024-03-17T03:01:47;1.90;99.90
10911;DHT22;5508;49.150;11.030;2024-03-17T03:04:48;2.10;99.90
10911;DHT22;5508;49.150;11.030;2024-03-17T03:07:49;2.20;99.90
10911;DHT22;5508;49.150;11.030;2024-03-17T03:10:50;2.30;99.90
10911;DHT22;5508;49.150;11.030;2024-03-17T03:13:51;2.40;99.90
10911;DHT22;5508;49.150;11.030;2024-03-17T03:16:52;2.50;99.90
10911;DHT22;5508;49.150;11.030;2024-03-17T03:19:52;2.60;99.90
10911;DHT22;5508;49.150;11.030;2024-03-17T03:22:53;2.60;99.90
10911;DHT22;5508;49.150;11.030;2024-03-17T03:26:00;2.60;99.90
10911;DHT22;5508;49.150;11.030;2024-03-17T03:29:03;2.60;99.90
10911;DHT22;5508;49.150;11.030;2024-03-17T03:32:04;2.60;99.90
10911;DHT22;5508;49.150;11.030;2024-03-17T03:35:05;2.60;99.90
10911;DHT22;5508;49.150;11.030;2024-03-17T03:38:07;2.60;99.90
10911;DHT22;5508;49.150;11.030;2024-03-17T03:41:15;2.70;99.90
10911;DHT22;5508;49.150;11.030;2024-03-17T03:44:17;2.70;99.90
10911;DHT22;5508;49.150;11.030;2024-03-17T03:47:18;2.70;99.90
10911;DHT22;5508;49.150;11.030;2024-03-17T03:50:22;2.70;99.90
10911;DHT22;5508;49.150;11.030;2024-03-17T03:53:23;2.80;99.90
10911;DHT22;5508;49.150;11.030;2024-03-17T03:56:24;2.80;99.90
10911;DHT22;5508;49.150;11.030;2024-03-17T03:59:26;2.80;99.90
10911;DHT22;5508;49.150;11.030;2024-03-17T04:02:26;2.80;99.90
10911;DHT22;5508;49.150;11.030;2024-03-17T04:05:31;2.80;99.90
10911;DHT22;5508;49.150;11.030;2024-03-17T04:08:33;2.80;99.90
10911;DHT22;5508;49.150;11.030;2024-03-17T04:11:33;2.90;99.90
10911;DHT22;5508;49.150;11.030;2024-03-17T04:14:34;2.80;99.90
10911;DHT22;5508;49.150;11.030;2024-03-17T04:17:35;2.70;99.90
10911;DHT22;5508;49.150;11.030;2024-03-17T04:20:36;2.70;99.90
10911;DHT22;5508;49.150;11.030;2024-03-17T04:23:36;2.80;99.90
10911;DHT22;5508;49.150;11.030;2024-03-17T04:26:37;2.80;99.90
10911;DHT22;5508;49.150;11.030;2024-03-17T04:29:39;2.90;99.90
10911;DHT22;5508;49.150;11.030;2024-03-17T04:32:40;2.90;99.90
10911;DHT22;5508;49.150;11.030;2024-03-17T04:35:41;3.00;99.90
10911;DHT22;5508;49.150;11.030;2024-03-17T04:38:41;3.00;99.90
10911;DHT22;5508;49.150;11.030;2024-03-17T04:41:42;3.00;99.90
10911;DHT22;5508;49.150;11.030;2024-03-17T04:44:44;3.00;99.90
10911;DHT22;5508;49.150;11.030;2024-03-17T04:47:45;3.10;99.90
10911;DHT22;5508;49.150;11.030;2024-03-17T04:50:47;3.10;99.90
10911;DHT22;5508;49.150;11.030;2024-03-17T04:53:48;3.10;99.90
10911;DHT22;5508;49.150;11.030;2024-03-17T04:56:48;3.10;99.90
10911;DHT22;5508;49.150;11.030;2024-03-17T04:59:50;3.00;99.90
10911;DHT22;5508;49.150;11.030;2024-03-17T05:02:50;3.10;99.90
10911;DHT22;5508;49.150;11.030;2024-03-17T05:05:58;3.20;99.90
10911;DHT22;5508;49.150;11.030;2024-03-17T05:09:01;3.20;99.90
10911;DHT22;5508;49.150;11.030;2024-03-17T05:12:01;3.20;99.90
10911;DHT22;5508;49.150;11.030;2024-03-17T05:15:02;3.20;99.90
10911;DHT22;5508;49.150;11.030;2024-03-17T05:18:04;3.20;99.90
10911;DHT22;5508;49.150;11.030;2024-03-17T05:21:06;3.10;99.90
10911;DHT22;5508;49.150;11.030;2024-03-17T05:24:07;3.10;99.90
10911;DHT22;5508;49.150;11.030;2024-03-17T05:27:07;3.20;99.90
10911;DHT22;5508;49.150;11.030;2024-03-17T05:30:09;3.20;99.90
10911;DHT22;5508;49.150;11.030;2024-03-17T05:33:10;3.20;99.90
10911;DHT22;5508;49.150;11.030;2024-03-17T05:36:10;3.20;99.90
10911;DHT22;5508;49.150;11.030;2024-03-17T05:39:11;3.20;99.90
10911;DHT22;5508;49.150;11.030;2024-03-17T05:42:11;3.20;99.90
10911;DHT22;5508;49.150;11.030;2024-03-17T05:45:12;3.10;99.90
10911;DHT22;5508;49.150;11.030;2024-03-17T05:48:13;3.00;99.90
10911;DHT22;5508;49.150;11.030;2024-03-17T05:51:14;2.90;99.90
10911;DHT22;5508;49.150;11.030;2024-03-17T05:54:16;2.80;99.90
10911;DHT22;5508;49.150;11.030;2024-03-17T05:57:17;2.70;99.90
10911;DHT22;5508;49.150;11.030;2024-03-17T06:00:17;2.70;99.90
10911;DHT22;5508;49.150;11.030;2024-03-17T06:03:19;2.80;99.90
10911;DHT22;5508;49.150;11.030;2024-03-17T06:06:20;2.90;99.90
10911;DHT22;5508;49.150;11.030;2024-03-17T06:09:20;3.00;99.90
10911;DHT22;5508;49.150;11.030;2024-03-17T06:12:21;3.20;99.90
10911;DHT22;5508;49.150;11.030;2024-03-17T06:15:22;3.30;99.90
10911;DHT22;5508;49.150;11.030;2024-03-17T06:18:24;3.40;99.90
10911;DHT22;5508;49.150;11.030;2024-03-17T06:21:24;3.50;99.90
10911;DHT22;5508;49.150;11.030;2024-03-17T06:24:25;3.60;99.90
10911;DHT22;5508;49.150;11.030;2024-03-17T06:27:26;3.70;99.90
10911;DHT22;5508;49.150;11.030;2024-03-17T06:30:26;3.70;99.90
10911;DHT22;5508;49.150;11.030;2024-03-17T06:33:27;3.90;99.90
10911;DHT22;5508;49.150;11.030;2024-03-17T06:36:32;4.00;99.90
10911;DHT22;5508;49.150;11.030;2024-03-17T06:39:33;4.00;99.90
10911;DHT22;5508;49.150;11.030;2024-03-17T06:42:33;4.10;99.90
10911;DHT22;5508;49.150;11.030;2024-03-17T06:45:34;4.20;99.90
10911;DHT22;5508;49.150;11.030;2024-03-17T06:48:35;4.30;99.90
10911;DHT22;5508;49.150;11.030;2024-03-17T06:51:36;4.40;99.90
10911;DHT22;5508;49.150;11.030;2024-03-17T06:54:36;4.40;99.90
10911;DHT22;5508;49.150;11.030;2024-03-17T06:57:37;4.50;99.90
10911;DHT22;5508;49.150;11.030;2024-03-17T07:00:37;4.60;99.90
10911;DHT22;5508;49.150;11.030;2024-03-17T07:03:38;4.60;99.90
10911;DHT22;5508;49.150;11.030;2024-03-17T07:06:39;4.70;99.90
10911;DHT22;5508;49.150;11.030;2024-03-17T07:09:40;4.80;99.90
10911;DHT22;5508;49.150;11.030;2024-03-17T07:12:41;4.90;99.90
10911;DHT22;5508;49.150;11.030;2024-03-17T07:15:47;4.90;99.90
10911;DHT22;5508;49.150;11.030;2024-03-17T07:18:47;5.10;99.90
10911;DHT22;5508;49.150;11.030;2024-03-17T07:21:50;5.20;99.90
10911;DHT22;5508;49.150;11.030;2024-03-17T07:24:51;5.30;99.90
10911;DHT22;5508;49.150;11.030;2024-03-17T07:27:56;5.20;99.90
10911;DHT22;5508;49.150;11.030;2024-03-17T07:30:58;5.30;99.90
10911;DHT22;5508;49.150;11.030;2024-03-17T07:33:58;5.20;99.90
10911;DHT22;5508;49.150;11.030;2024-03-17T07:36:59;5.30;99.90
10911;DHT22;5508;49.150;11.030;2024-03-17T07:40:03;5.60;99.90
10911;DHT22;5508;49.150;11.030;2024-03-17T07:43:04;5.40;99.90
10911;DHT22;5508;49.150;11.030;2024-03-17T07:46:06;5.60;99.90
10911;DHT22;5508;49.150;11.030;2024-03-17T07:49:07;5.70;99.90
10911;DHT22;5508;49.150;11.030;2024-03-17T07:52:08;5.90;99.90
10911;DHT22;5508;49.150;11.030;2024-03-17T07:55:09;6.10;99.90
10911;DHT22;5508;49.150;11.030;2024-03-17T07:58:09;6.00;99.90
10911;DHT22;5508;49.150;11.030;2024-03-17T08:01:14;6.00;99.90
10911;DHT22;5508;49.150;11.030;2024-03-17T08:04:15;6.20;99.90
10911;DHT22;5508;49.150;11.030;2024-03-17T08:07:16;6.60;99.90
10911;DHT22;5508;49.150;11.030;2024-03-17T08:10:17;6.80;99.90
10911;DHT22;5508;49.150;11.030;2024-03-17T08:13:18;7.10;99.90
10911;DHT22;5508;49.150;11.030;2024-03-17T08:16:19;7.40;99.90
10911;DHT22;5508;49.150;11.030;2024-03-17T08:19:19;7.50;99.90
10911;DHT22;5508;49.150;11.030;2024-03-17T08:22:20;7.40;99.90
10911;DHT22;5508;49.150;11.030;2024-03-17T08:25:21;7.50;99.90
10911;DHT22;5508;49.150;11.030;2024-03-17T08:28:22;7.80;99.90
10911;DHT22;5508;49.150;11.030;2024-03-17T08:31:23;8.20;99.90
10911;DHT22;5508;49.150;11.030;2024-03-17T08:34:23;8.40;95.30
10911;DHT22;5508;49.150;11.030;2024-03-17T08:37:24;8.50;93.80
10911;DHT22;5508;49.150;11.030;2024-03-17T08:40:26;8.50;95.50
10911;DHT22;5508;49.150;11.030;2024-03-17T08:43:26;8.70;93.70
10911;DHT22;5508;49.150;11.030;2024-03-17T08:46:27;9.10;94.60
10911;DHT22;5508;49.150;11.030;2024-03-17T08:49:28;9.20;89.30
10911;DHT22;5508;49.150;11.030;2024-03-17T08:52:28;9.30;89.70
10911;DHT22;5508;49.150;11.030;2024-03-17T08:55:29;9.60;90.10
10911;DHT22;5508;49.150;11.030;2024-03-17T08:58:29;9.50;89.70
10911;DHT22;5508;49.150;11.030;2024-03-17T09:01:30;9.50;87.40
10911;DHT22;5508;49.150;11.030;2024-03-17T09:04:32;9.80;86.90
10911;DHT22;5508;49.150;11.030;2024-03-17T09:07:33;9.80;84.30
10911;DHT22;5508;49.150;11.030;2024-03-17T09:10:41;10.10;83.00
10911;DHT22;5508;49.150;11.030;2024-03-17T09:13:42;10.20;82.80
10911;DHT22;5508;49.150;11.030;2024-03-17T09:16:43;10.50;81.90
10911;DHT22;5508;49.150;11.030;2024-03-17T09:19:43;10.70;78.70
10911;DHT22;5508;49.150;11.030;2024-03-17T09:22:44;10.50;76.70
10911;DHT22;5508;49.150;11.030;2024-03-17T09:26:15;10.20;81.50
10911;DHT22;5508;49.150;11.030;2024-03-17T09:29:17;10.70;79.30
10911;DHT22;5508;49.150;11.030;2024-03-17T09:32:17;11.00;79.30
10911;DHT22;5508;49.150;11.030;2024-03-17T09:35:18;11.10;78.40
10911;DHT22;5508;49.150;11.030;2024-03-17T09:38:19;11.00;78.80
10911;DHT22;5508;49.150;11.030;2024-03-17T09:41:23;11.40;78.50
10911;DHT22;5508;49.150;11.030;2024-03-17T09:44:30;11.50;76.10
10911;DHT22;5508;49.150;11.030;2024-03-17T09:47:32;11.30;73.10
10911;DHT22;5508;49.150;11.030;2024-03-17T09:50:33;11.50;75.40
10911;DHT22;5508;49.150;11.030;2024-03-17T09:53:35;11.80;74.00
10911;DHT22;5508;49.150;11.030;2024-03-17T09:56:35;12.40;68.00
10911;DHT22;5508;49.150;11.030;2024-03-17T09:59:36;12.60;68.10
10911;DHT22;5508;49.150;11.030;2024-03-17T10:02:44;12.60;66.40
10911;DHT22;5508;49.150;11.030;2024-03-17T10:05:46;12.80;63.00
10911;DHT22;5508;49.150;11.030;2024-03-17T10:08:48;13.20;69.50
10911;DHT22;5508;49.150;11.030;2024-03-17T10:11:48;13.90;63.20
10911;DHT22;5508;49.150;11.030;2024-03-17T10:14:58;13.20;70.30
10911;DHT22;5508;49.150;11.030;2024-03-17T10:17:59;12.60;63.00
10911;DHT22;5508;49.150;11.030;2024-03-17T10:20:59;12.70;68.20
10911;DHT22;5508;49.150;11.030;2024-03-17T10:27:10;12.20;68.40
10911;DHT22;5508;49.150;11.030;2024-03-17T10:30:18;11.70;70.00
10911;DHT22;5508;49.150;11.030;2024-03-17T10:33:22;11.60;69.10
10911;DHT22;5508;49.150;11.030;2024-03-17T10:36:25;12.30;70.30
10911;DHT22;5508;49.150;11.030;2024-03-17T10:39:27;13.40;69.20
10911;DHT22;5508;49.150;11.030;2024-03-17T10:42:30;13.70;64.10
10911;DHT22;5508;49.150;11.030;2024-03-17T10:45:37;13.40;59.80
10911;DHT22;5508;49.150;11.030;2024-03-17T10:48:40;13.60;59.70
10911;DHT22;5508;49.150;11.030;2024-03-17T10:51:44;13.20;65.00
10911;DHT22;5508;49.150;11.030;2024-03-17T10:54:49;13.40;68.30
10911;DHT22;5508;49.150;11.030;2024-03-17T10:57:54;14.20;61.40
10911;DHT22;5508;49.150;11.030;2024-03-17T11:01:01;13.90;61.10
10911;DHT22;5508;49.150;11.030;2024-03-17T11:04:03;13.50;59.60
10911;DHT22;5508;49.150;11.030;2024-03-17T11:07:05;12.50;63.40
10911;DHT22;5508;49.150;11.030;2024-03-17T11:10:09;12.30;65.30
10911;DHT22;5508;49.150;11.030;2024-03-17T11:13:26;12.50;65.60
10911;DHT22;5508;49.150;11.030;2024-03-17T11:16:27;12.50;62.30
10911;DHT22;5508;49.150;11.030;2024-03-17T11:19:28;12.50;66.10
10911;DHT22;5508;49.150;11.030;2024-03-17T11:22:44;12.50;64.80
10911;DHT22;5508;49.150;11.030;2024-03-17T11:25:51;12.80;66.10
10911;DHT22;5508;49.150;11.030;2024-03-17T11:28:52;12.90;64.00
10911;DHT22;5508;49.150;11.030;2024-03-17T11:31:53;13.20;58.40
10911;DHT22;5508;49.150;11.030;2024-03-17T11:35:12;13.10;60.20
10911;DHT22;5508;49.150;11.030;2024-03-17T11:41:52;12.50;58.00
10911;DHT22;5508;49.150;11.030;2024-03-17T11:45:02;12.70;60.30
10911;DHT22;5508;49.150;11.030;2024-03-17T11:48:10;12.40;61.60
10911;DHT22;5508;49.150;11.030;2024-03-17T11:51:13;12.30;62.90
10911;DHT22;5508;49.150;11.030;2024-03-17T11:54:22;12.50;64.30
10911;DHT22;5508;49.150;11.030;2024-03-17T11:57:25;12.40;62.70
10911;DHT22;5508;49.150;11.030;2024-03-17T12:00:27;12.20;65.10
10911;DHT22;5508;49.150;11.030;2024-03-17T12:03:27;12.00;64.30
10911;DHT22;5508;49.150;11.030;2024-03-17T12:06:28;11.90;63.50
10911;DHT22;5508;49.150;11.030;2024-03-17T12:09:30;12.10;64.80
10911;DHT22;5508;49.150;11.030;2024-03-17T12:12:32;12.30;65.90
10911;DHT22;5508;49.150;11.030;2024-03-17T12:15:35;12.60;61.60
10911;DHT22;5508;49.150;11.030;2024-03-17T12:18:36;12.60;63.30
10911;DHT22;5508;49.150;11.030;2024-03-17T12:21:45;12.60;61.70
10911;DHT22;5508;49.150;11.030;2024-03-17T12:24:46;12.50;61.90
10911;DHT22;5508;49.150;11.030;2024-03-17T12:27:48;12.70;64.60
10911;DHT22;5508;49.150;11.030;2024-03-17T12:30:49;13.20;62.80
10911;DHT22;5508;49.150;11.030;2024-03-17T12:33:50;12.70;61.80
10911;DHT22;5508;49.150;11.030;2024-03-17T12:36:52;12.90;62.00
10911;DHT22;5508;49.150;11.030;2024-03-17T12:39:53;13.20;64.20
10911;DHT22;5508;49.150;11.030;2024-03-17T12:42:54;13.40;59.40
10911;DHT22;5508;49.150;11.030;2024-03-17T12:45:58;13.30;60.70
10911;DHT22;5508;49.150;11.030;2024-03-17T12:48:59;13.60;60.60
10911;DHT22;5508;49.150;11.030;2024-03-17T12:52:00;13.30;60.00
10911;DHT22;5508;49.150;11.030;2024-03-17T12:55:05;13.60;63.50
10911;DHT22;5508;49.150;11.030;2024-03-17T12:58:24;13.20;61.50
10911;DHT22;5508;49.150;11.030;2024-03-17T13:01:45;13.60;60.90
10911;DHT22;5508;49.150;11.030;2024-03-17T13:04:46;13.30;61.50
10911;DHT22;5508;49.150;11.030;2024-03-17T13:07:47;13.20;61.60
10911;DHT22;5508;49.150;11.030;2024-03-17T13:10:48;13.20;59.60
10911;DHT22;5508;49.150;11.030;2024-03-17T13:13:48;12.80;62.30
10911;DHT22;5508;49.150;11.030;2024-03-17T13:16:49;12.60;62.90
10911;DHT22;5508;49.150;11.030;2024-03-17T13:19:49;12.60;61.70
10911;DHT22;5508;49.150;11.030;2024-03-17T13:22:50;12.70;61.90
10911;DHT22;5508;49.150;11.030;2024-03-17T13:25:51;12.80;65.00
10911;DHT22;5508;49.150;11.030;2024-03-17T13:28:51;13.40;62.80
10911;DHT22;5508;49.150;11.030;2024-03-17T13:31:52;13.30;60.70
10911;DHT22;5508;49.150;11.030;2024-03-17T13:34:52;13.30;61.50
10911;DHT22;5508;49.150;11.030;2024-03-17T13:37:53;13.30;60.90
10911;DHT22;5508;49.150;11.030;2024-03-17T13:41:00;13.30;60.30
10911;DHT22;5508;49.150;11.030;2024-03-17T13:44:01;13.40;60.60
10911;DHT22;5508;49.150;11.030;2024-03-17T13:47:01;13.10;60.30
10911;DHT22;5508;49.150;11.030;2024-03-17T13:50:02;12.90;61.50
10911;DHT22;5508;49.150;11.030;2024-03-17T13:53:06;12.70;61.50
10911;DHT22;5508;49.150;11.030;2024-03-17T13:56:07;12.80;63.30
10911;DHT22;5508;49.150;11.030;2024-03-17T13:59:10;12.70;59.80
10911;DHT22;5508;49.150;11.030;2024-03-17T14:02:12;12.60;62.20
10911;DHT22;5508;49.150;11.030;2024-03-17T14:05:15;12.70;63.50
10911;DHT22;5508;49.150;11.030;2024-03-17T14:08:17;12.70;60.90
10911;DHT22;5508;49.150;11.030;2024-03-17T14:11:17;12.80;61.90
10911;DHT22;5508;49.150;11.030;2024-03-17T14:14:18;12.80;60.20
10911;DHT22;5508;49.150;11.030;2024-03-17T14:17:19;12.80;63.10
10911;DHT22;5508;49.150;11.030;2024-03-17T14:20:20;12.80;60.70
10911;DHT22;5508;49.150;11.030;2024-03-17T14:23:20;12.90;64.30
10911;DHT22;5508;49.150;11.030;2024-03-17T14:26:22;12.80;60.60
10911;DHT22;5508;49.150;11.030;2024-03-17T14:29:23;12.70;62.00
10911;DHT22;5508;49.150;11.030;2024-03-17T14:32:24;12.40;61.90
10911;DHT22;5508;49.150;11.030;2024-03-17T14:35:25;12.40;62.60
10911;DHT22;5508;49.150;11.030;2024-03-17T14:38:27;12.50;63.00
10911;DHT22;5508;49.150;11.030;2024-03-17T14:41:29;12.50;61.30
10911;DHT22;5508;49.150;11.030;2024-03-17T14:44:30;12.30;61.30
10911;DHT22;5508;49.150;11.030;2024-03-17T14:47:30;12.50;61.90
10911;DHT22;5508;49.150;11.030;2024-03-17T14:50:31;12.30;62.20
10911;DHT22;5508;49.150;11.030;2024-03-17T14:53:32;12.30;63.90
10911;DHT22;5508;49.150;11.030;2024-03-17T14:56:33;12.30;65.00
10911;DHT22;5508;49.150;11.030;2024-03-17T14:59:33;12.30;61.90
10911;DHT22;5508;49.150;11.030;2024-03-17T15:02:34;12.20;62.20
10911;DHT22;5508;49.150;11.030;2024-03-17T15:05:35;12.20;62.60
10911;DHT22;5508;49.150;11.030;2024-03-17T15:08:36;12.50;65.20
10911;DHT22;5508;49.150;11.030;2024-03-17T15:11:36;12.50;63.20
10911;DHT22;5508;49.150;11.030;2024-03-17T15:14:37;12.40;62.40
10911;DHT22;5508;49.150;11.030;2024-03-17T15:17:38;12.30;63.60
10911;DHT22;5508;49.150;11.030;2024-03-17T15:20:38;12.50;62.70
10911;DHT22;5508;49.150;11.030;2024-03-17T15:23:39;12.50;64.20
10911;DHT22;5508;49.150;11.030;2024-03-17T15:26:40;12.40;61.60
10911;DHT22;5508;49.150;11.030;2024-03-17T15:29:40;12.30;65.30
10911;DHT22;5508;49.150;11.030;2024-03-17T15:32:45;12.10;63.60
10911;DHT22;5508;49.150;11.030;2024-03-17T15:35:46;12.20;64.70
10911;DHT22;5508;49.150;11.030;2024-03-17T15:38:47;12.20;64.80
10911;DHT22;5508;49.150;11.030;2024-03-17T15:41:47;12.20;65.00
10911;DHT22;5508;49.150;11.030;2024-03-17T15:44:48;12.10;63.60
10911;DHT22;5508;49.150;11.030;2024-03-17T15:47:49;12.10;63.40
10911;DHT22;5508;49.150;11.030;2024-03-17T15:50:55;12.10;63.10
10911;DHT22;5508;49.150;11.030;2024-03-17T15:53:56;11.90;65.70
10911;DHT22;5508;49.150;11.030;2024-03-17T15:56:57;11.70;66.50
10911;DHT22;5508;49.150;11.030;2024-03-17T15:59:58;11.70;67.10
10911;DHT22;5508;49.150;11.030;2024-03-17T16:02:59;11.70;68.20
10911;DHT22;5508;49.150;11.030;2024-03-17T16:06:07;11.70;67.40
10911;DHT22;5508;49.150;11.030;2024-03-17T16:09:09;11.60;69.10
10911;DHT22;5508;49.150;11.030;2024-03-17T16:12:12;11.60;66.70
10911;DHT22;5508;49.150;11.030;2024-03-17T16:15:14;11.60;66.40
10911;DHT22;5508;49.150;11.030;2024-03-17T16:18:17;11.50;66.70
10911;DHT22;5508;49.150;11.030;2024-03-17T16:21:21;11.40;67.30
10911;DHT22;5508;49.150;11.030;2024-03-17T16:24:22;11.40;69.20
10911;DHT22;5508;49.150;11.030;2024-03-17T16:27:23;11.40;68.40
10911;DHT22;5508;49.150;11.030;2024-03-17T16:30:23;11.30;68.00
10911;DHT22;5508;49.150;11.030;2024-03-17T16:33:24;11.20;71.30
10911;DHT22;5508;49.150;11.030;2024-03-17T16:36:27;11.10;70.40
10911;DHT22;5508;49.150;11.030;2024-03-17T16:39:28;11.00;73.60
10911;DHT22;5508;49.150;11.030;2024-03-17T16:42:31;10.90;72.90
10911;DHT22;5508;49.150;11.030;2024-03-17T16:45:32;10.80;73.10
10911;DHT22;5508;49.150;11.030;2024-03-17T16:48:33;10.70;77.30
10911;DHT22;5508;49.150;11.030;2024-03-17T16:51:34;10.50;77.80
10911;DHT22;5508;49.150;11.030;2024-03-17T16:54:36;10.60;78.90
10911;DHT22;5508;49.150;11.030;2024-03-17T16:57:37;10.40;79.80
10911;DHT22;5508;49.150;11.030;2024-03-17T17:00:37;10.40;79.70
10911;DHT22;5508;49.150;11.030;2024-03-17T17:03:38;10.30;82.20
10911;DHT22;5508;49.150;11.030;2024-03-17T17:06:39;10.20;84.30
10911;DHT22;5508;49.150;11.030;2024-03-17T17:09:40;10.10;85.60
10911;DHT22;5508;49.150;11.030;2024-03-17T17:12:40;10.10;86.20
10911;DHT22;5508;49.150;11.030;2024-03-17T17:15:44;10.00;88.20
10911;DHT22;5508;49.150;11.030;2024-03-17T17:18:48;9.90;89.60
10911;DHT22;5508;49.150;11.030;2024-03-17T17:21:50;9.80;90.30
10911;DHT22;5508;49.150;11.030;2024-03-17T17:24:52;9.70;90.90
10911;DHT22;5508;49.150;11.030;2024-03-17T17:27:53;9.60;90.70
10911;DHT22;5508;49.150;11.030;2024-03-17T17:30:54;9.50;91.00
10911;DHT22;5508;49.150;11.030;2024-03-17T17:33:55;9.40;91.70
10911;DHT22;5508;49.150;11.030;2024-03-17T17:36:57;9.30;92.10
10911;DHT22;5508;49.150;11.030;2024-03-17T17:39:57;9.20;92.40
10911;DHT22;5508;49.150;11.030;2024-03-17T17:42:58;9.10;92.90
10911;DHT22;5508;49.150;11.030;2024-03-17T17:46:02;9.00;93.20
10911;DHT22;5508;49.150;11.030;2024-03-17T17:49:03;8.90;92.90
10911;DHT22;5508;49.150;11.030;2024-03-17T17:52:04;8.90;93.60
10911;DHT22;5508;49.150;11.030;2024-03-17T17:55:05;8.80;93.40
10911;DHT22;5508;49.150;11.030;2024-03-17T17:58:07;8.70;93.40
10911;DHT22;5508;49.150;11.030;2024-03-17T18:01:08;8.60;94.50
10911;DHT22;5508;49.150;11.030;2024-03-17T18:04:09;8.40;97.30
10911;DHT22;5508;49.150;11.030;2024-03-17T18:07:10;8.30;98.90
10911;DHT22;5508;49.150;11.030;2024-03-17T18:10:10;8.20;99.40
10911;DHT22;5508;49.150;11.030;2024-03-17T18:13:11;8.00;99.90
10911;DHT22;5508;49.150;11.030;2024-03-17T18:16:12;8.00;99.90
10911;DHT22;5508;49.150;11.030;2024-03-17T18:19:16;7.80;99.90
10911;DHT22;5508;49.150;11.030;2024-03-17T18:22:17;7.80;99.90
10911;DHT22;5508;49.150;11.030;2024-03-17T18:25:18;7.70;99.90
10911;DHT22;5508;49.150;11.030;2024-03-17T18:28:19;7.60;99.90
10911;DHT22;5508;49.150;11.030;2024-03-17T18:31:20;7.50;99.90
10911;DHT22;5508;49.150;11.030;2024-03-17T18:34:20;7.40;99.90
10911;DHT22;5508;49.150;11.030;2024-03-17T18:37:22;7.40;99.90
10911;DHT22;5508;49.150;11.030;2024-03-17T18:40:22;7.40;99.90
10911;DHT22;5508;49.150;11.030;2024-03-17T18:43:24;7.30;99.90
10911;DHT22;5508;49.150;11.030;2024-03-17T18:46:25;7.30;99.90
10911;DHT22;5508;49.150;11.030;2024-03-17T18:49:25;7.30;99.90
10911;DHT22;5508;49.150;11.030;2024-03-17T18:52:26;7.30;99.90
10911;DHT22;5508;49.150;11.030;2024-03-17T18:55:27;7.30;99.90
10911;DHT22;5508;49.150;11.030;2024-03-17T18:58:28;7.20;99.90
10911;DHT22;5508;49.150;11.030;2024-03-17T19:01:31;7.10;99.90
10911;DHT22;5508;49.150;11.030;2024-03-17T19:04:32;7.00;99.90
10911;DHT22;5508;49.150;11.030;2024-03-17T19:07:33;6.90;99.90
10911;DHT22;5508;49.150;11.030;2024-03-17T19:10:33;6.80;99.90
10911;DHT22;5508;49.150;11.030;2024-03-17T19:13:34;6.60;99.90
10911;DHT22;5508;49.150;11.030;2024-03-17T19:16:36;6.50;99.90
10911;DHT22;5508;49.150;11.030;2024-03-17T19:19:37;6.30;99.90
10911;DHT22;5508;49.150;11.030;2024-03-17T19:22:42;6.20;99.90
10911;DHT22;5508;49.150;11.030;2024-03-17T19:25:42;6.20;99.90